Time;durP1;ratioP1;P1;durP2;ratioP2;P2;SDS_P1;SDS_P2;PMS_P1;PMS_P2;Temp;Humidity;BMP_temperature;BMP_pressure;BME280_temperature;BME280_humidity;BME280_pressure;Samples;Min_cycle;Max_cycle;Signal;HPM_P1;HPM_P2
2023/10/22 00:00:37;;;;;;;8.40;5.82;;;;;;;22.50;61.10;99956.94;2083670;28;20081;-66
2023/10/22 00:01:40;;;;;;;7.82;5.32;;;;;;;22.50;61.10;99952.25;2084284;28;20032;-66
2023/10/22 00:02:44;;;;;;;8.02;5.70;;;;;;;22.51;61.09;99953.03;2099339;28;20862;-66
2023/10/22 00:03:51;;;;;;;8.70;5.55;;;;;;;22.49;60.98;99947.16;2108523;28;20855;-65
2023/10/22 00:04:52;;;;;;;13.15;5.78;;;;;;;22.50;61.01;99946.78;2099182;28;20040;-65
2023/10/22 00:05:57;;;;;;;12.80;6.30;;;;;;;22.50;60.91;99946.00;2099382;28;20036;-65
2023/10/22 00:06:59;;;;;;;8.23;5.65;;;;;;;22.50;61.11;99952.25;2082811;28;21272;-66
2023/10/22 00:08:00;;;;;;;9.90;5.18;;;;;;;22.50;61.05;99957.72;2074587;28;20082;-66
2023/10/22 00:09:02;;;;;;;9.02;5.85;;;;;;;22.50;61.17;99957.72;2074200;28;20128;-66
2023/10/22 00:10:05;;;;;;;7.97;5.55;;;;;;;22.51;61.13;99961.25;2082408;28;20149;-66
2023/10/22 00:11:08;;;;;;;8.75;5.30;;;;;;;22.49;61.18;99961.66;2107666;28;20020;-66
2023/10/22 00:12:11;;;;;;;8.43;4.95;;;;;;;22.49;61.02;99967.13;2090550;28;20026;-66
2023/10/22 00:13:16;;;;;;;7.63;5.50;;;;;;;22.50;61.33;99967.91;2084324;28;20068;-67
2023/10/22 00:14:18;;;;;;;10.13;5.30;;;;;;;22.49;61.33;99969.09;2091107;28;20041;-66
2023/10/22 00:15:22;;;;;;;8.02;5.53;;;;;;;22.48;61.20;99959.25;2091440;28;20034;-66
2023/10/22 00:16:24;;;;;;;8.18;5.45;;;;;;;22.49;61.26;99963.59;2091087;28;20902;-66
2023/10/22 00:17:28;;;;;;;8.48;5.72;;;;;;;22.49;61.19;99961.66;2083181;28;20072;-66
2023/10/22 00:18:29;;;;;;;8.43;5.70;;;;;;;22.49;61.28;99961.66;2091800;28;20125;-66
2023/10/22 00:19:31;;;;;;;7.65;4.85;;;;;;;22.49;61.26;99967.13;2099131;28;20040;-67
2023/10/22 00:20:37;;;;;;;7.68;5.15;;;;;;;22.49;61.27;99966.34;2090480;28;20029;-67
2023/10/22 00:21:40;;;;;;;7.05;5.00;;;;;;;22.49;61.39;99974.56;2091905;28;20075;-67
2023/10/22 00:22:41;;;;;;;6.63;4.90;;;;;;;22.48;61.28;99964.75;2094138;28;20017;-67
2023/10/22 00:23:44;;;;;;;8.13;4.93;;;;;;;22.48;61.26;99960.06;2098883;28;20844;-67
2023/10/22 00:24:46;;;;;;;8.82;5.07;;;;;;;22.49;61.28;99971.81;2115429;27;20778;-67
2023/10/22 00:25:50;;;;;;;8.48;5.35;;;;;;;22.48;61.40;99971.03;2105892;28;20047;-67
2023/10/22 00:26:52;;;;;;;8.52;5.32;;;;;;;22.50;61.28;99967.91;2090696;28;20136;-67
2023/10/22 00:27:55;;;;;;;8.45;4.90;;;;;;;22.48;61.44;99967.47;2082570;28;20026;-67
2023/10/22 00:28:57;;;;;;;12.63;5.35;;;;;;;22.48;61.33;99954.59;2099264;28;20127;-67
2023/10/22 00:30:00;;;;;;;9.40;5.47;;;;;;;22.48;61.35;99964.75;2098846;28;20068;-67
2023/10/22 00:31:01;;;;;;;10.80;4.90;;;;;;;22.48;61.42;99964.75;2090770;28;20030;-67
2023/10/22 00:32:04;;;;;;;9.15;5.88;;;;;;;22.49;61.27;99963.59;2082376;28;20069;-67
2023/10/22 00:33:07;;;;;;;8.32;5.10;;;;;;;22.44;61.42;99954.53;2090356;28;20907;-67
2023/10/22 00:34:09;;;;;;;9.15;5.63;;;;;;;22.49;61.32;99960.84;2098687;28;20053;-67
2023/10/22 00:35:12;;;;;;;7.40;4.55;;;;;;;22.48;61.30;99968.28;2099042;28;20025;-67
2023/10/22 00:36:13;;;;;;;10.13;5.72;;;;;;;22.49;61.29;99969.09;2091098;28;20037;-66
2023/10/22 00:37:15;;;;;;;7.15;4.90;;;;;;;22.48;61.31;99965.56;2098957;28;20025;-67
2023/10/22 00:38:16;;;;;;;8.68;5.10;;;;;;;22.48;61.44;99960.06;2098766;28;20021;-67
2023/10/22 00:39:18;;;;;;;8.55;5.57;;;;;;;22.49;61.44;99958.13;2090868;28;20032;-67
2023/10/22 00:40:20;;;;;;;10.63;5.10;;;;;;;22.48;61.39;99964.75;2082605;28;20177;-67
2023/10/22 00:41:22;;;;;;;7.88;5.18;;;;;;;22.49;61.38;99955.38;2082672;28;20068;-67
2023/10/22 00:42:24;;;;;;;8.02;5.45;;;;;;;22.47;61.28;99961.22;2082141;28;20163;-67
2023/10/22 00:43:28;;;;;;;10.35;4.95;;;;;;;22.47;61.36;99963.97;2083438;28;20780;-67
2023/10/22 00:44:29;;;;;;;7.72;5.00;;;;;;;22.47;61.32;99969.44;2099335;28;20784;-67
2023/10/22 00:45:36;;;;;;;9.23;5.47;;;;;;;22.48;61.30;99964.75;2098512;28;20025;-67
2023/10/22 00:46:39;;;;;;;14.27;5.28;;;;;;;22.48;61.30;99964.75;2085217;28;20057;-67
2023/10/22 00:47:40;;;;;;;8.35;5.32;;;;;;;22.47;61.33;99963.19;2099324;28;20848;-67
2023/10/22 00:48:43;;;;;;;8.20;5.65;;;;;;;22.47;61.26;99963.19;2098698;28;20095;-67
2023/10/22 00:49:44;;;;;;;7.80;5.15;;;;;;;22.48;61.19;99964.75;2099065;28;20036;-67
2023/10/22 00:50:46;;;;;;;6.53;5.25;;;;;;;22.46;61.42;99962.38;2090529;28;20088;-66
2023/10/22 00:51:50;;;;;;;7.88;5.20;;;;;;;22.48;61.35;99959.25;2090720;28;20788;-66
2023/10/22 00:52:52;;;;;;;6.72;4.53;;;;;;;22.47;61.35;99955.75;2098699;28;20064;-67
2023/10/22 00:53:54;;;;;;;9.02;5.75;;;;;;;22.47;61.38;99952.22;2090350;28;20021;-68
2023/10/22 00:54:59;;;;;;;7.97;4.85;;;;;;;22.47;61.42;99963.97;2098798;28;20029;-67
2023/10/22 00:56:03;;;;;;;7.80;5.22;;;;;;;22.45;61.42;99952.59;2092772;28;20026;-67
2023/10/22 00:57:11;;;;;;;7.80;4.97;;;;;;;22.47;61.38;99968.66;2090852;28;20034;-67
2023/10/22 00:58:14;;;;;;;8.23;4.95;;;;;;;22.47;61.26;99957.69;2091324;28;20045;-66
2023/10/22 00:59:15;;;;;;;10.70;5.10;;;;;;;22.44;61.11;99960.00;2090357;28;20034;-66
2023/10/22 01:00:19;;;;;;;8.98;4.95;;;;;;;22.44;61.30;99954.53;2107086;28;20131;-66
2023/10/22 01:01:21;;;;;;;8.85;4.90;;;;;;;22.46;61.40;99956.91;2107086;28;20911;-67
2023/10/22 01:02:23;;;;;;;7.90;5.07;;;;;;;22.46;61.48;99958.88;2090384;28;20033;-67
2023/10/22 01:03:24;;;;;;;6.53;4.35;;;;;;;22.47;61.64;99963.19;2089725;28;20071;-66
2023/10/22 01:04:26;;;;;;;6.95;4.38;;;;;;;22.48;61.53;99962.00;2090102;28;20033;-66
2023/10/22 01:05:28;;;;;;;11.35;5.20;;;;;;;22.47;61.40;99963.97;2098436;28;20056;-67
2023/10/22 01:06:31;;;;;;;9.57;4.47;;;;;;;22.47;61.56;99963.97;2090910;28;20033;-66
2023/10/22 01:07:33;;;;;;;7.35;5.40;;;;;;;22.47;61.66;99965.91;2090246;28;20040;-66
2023/10/22 01:08:36;;;;;;;7.55;4.85;;;;;;;22.47;61.78;99957.69;2090997;28;20981;-66
2023/10/22 01:09:40;;;;;;;7.32;5.20;;;;;;;22.47;61.46;99958.47;2106873;28;20085;-66
2023/10/22 01:10:47;;;;;;;6.68;4.57;;;;;;;22.48;61.77;99964.75;2105834;28;20102;-65
2023/10/22 01:12:21;;;;;;;7.22;4.47;;;;;;;22.47;61.73;99957.69;2107540;28;20059;-66
2023/10/22 01:13:22;;;;;;;11.00;5.05;;;;;;;22.47;61.64;99963.19;2096913;28;20143;-66
2023/10/22 01:14:24;;;;;;;7.88;5.15;;;;;;;22.47;61.52;99958.47;2090049;28;20126;-66
2023/10/22 01:15:26;;;;;;;6.97;5.20;;;;;;;22.47;61.39;99968.66;2090522;28;20041;-66
2023/10/22 01:16:28;;;;;;;13.50;5.05;;;;;;;22.46;61.56;99958.88;2107064;28;20044;-67
2023/10/22 01:17:30;;;;;;;7.47;4.93;;;;;;;22.47;61.59;99963.19;2106602;28;20075;-67
2023/10/22 01:18:33;;;;;;;7.45;5.13;;;;;;;22.46;61.74;99956.91;2090541;28;20032;-67
2023/10/22 01:19:37;;;;;;;6.57;5.15;;;;;;;22.47;61.54;99953.00;2090457;28;20037;-66
2023/10/22 01:20:39;;;;;;;7.22;4.72;;;;;;;22.47;61.74;99954.97;2082171;28;20038;-67
2023/10/22 01:21:42;;;;;;;6.97;4.65;;;;;;;22.48;61.76;99953.78;2090743;28;20022;-66
2023/10/22 01:22:44;;;;;;;8.30;5.53;;;;;;;22.47;61.69;99952.22;2101399;28;20040;-66
2023/10/22 01:23:46;;;;;;;10.65;6.00;;;;;;;22.47;60.80;99952.22;2098614;28;20033;-67
2023/10/22 01:24:49;;;;;;;8.68;5.65;;;;;;;22.46;60.15;99947.91;2098901;28;20040;-66
2023/10/22 01:25:51;;;;;;;11.35;6.00;;;;;;;22.42;59.80;99951.41;2106036;28;20840;-66
2023/10/22 01:26:52;;;;;;;8.32;5.72;;;;;;;22.43;59.50;99949.44;2106798;28;20031;-66
2023/10/22 01:27:56;;;;;;;8.60;5.68;;;;;;;22.38;59.40;99949.75;2101586;28;20024;-67
2023/10/22 01:28:58;;;;;;;8.80;6.13;;;;;;;22.40;59.08;99950.97;2095889;28;20041;-67
2023/10/22 01:30:00;;;;;;;11.65;6.40;;;;;;;22.38;58.89;99956.06;2099573;28;20021;-67
2023/10/22 01:31:04;;;;;;;9.13;6.32;;;;;;;22.37;58.86;99954.44;2088887;28;20876;-67
2023/10/22 01:32:07;;;;;;;9.32;6.28;;;;;;;22.36;58.46;99955.63;2098718;28;20904;-67
2023/10/22 01:33:09;;;;;;;10.27;6.53;;;;;;;22.35;58.38;99967.75;2088802;28;20143;-67
2023/10/22 01:34:12;;;;;;;10.40;6.72;;;;;;;22.34;58.19;99957.94;2089061;28;20034;-67
2023/10/22 01:35:13;;;;;;;10.02;6.65;;;;;;;22.32;58.06;99957.53;2080491;28;20029;-67
2023/10/22 01:36:16;;;;;;;8.73;6.53;;;;;;;22.31;57.94;99955.16;2089328;28;20107;-68
2023/10/22 01:37:18;;;;;;;8.63;5.90;;;;;;;22.30;57.84;99948.13;2096501;28;20040;-68
2023/10/22 01:38:19;;;;;;;10.77;6.10;;;;;;;22.28;57.77;99944.94;2088894;28;20038;-68
2023/10/22 01:39:20;;;;;;;10.13;5.95;;;;;;;22.26;57.86;99939.84;2088948;28;20030;-68
2023/10/22 01:40:23;;;;;;;9.63;6.28;;;;;;;22.25;57.62;99941.00;2097246;28;20124;-67
2023/10/22 01:41:27;;;;;;;9.15;6.30;;;;;;;22.25;57.47;99946.47;2093485;28;20029;-67
2023/10/22 01:42:30;;;;;;;9.15;6.85;;;;;;;22.24;57.61;99949.59;2097323;28;20067;-66
2023/10/22 01:43:31;;;;;;;9.85;6.60;;;;;;;22.23;57.58;99948.81;2088817;28;20029;-66
2023/10/22 01:44:33;;;;;;;8.32;5.88;;;;;;;22.21;57.36;99948.38;2080704;28;20888;-67
2023/10/22 01:45:37;;;;;;;9.40;6.22;;;;;;;22.19;57.33;99954.25;2081072;28;20040;-67
2023/10/22 01:46:39;;;;;;;9.02;6.15;;;;;;;22.18;57.59;99955.38;2098535;28;20041;-66
2023/10/22 01:47:46;;;;;;;9.27;6.68;;;;;;;22.18;57.43;99946.41;2113283;28;20027;-65
2023/10/22 01:48:49;;;;;;;11.05;6.20;;;;;;;22.15;57.36;99942.41;2108464;28;20028;-65
2023/10/22 01:49:51;;;;;;;9.73;6.38;;;;;;;22.15;57.40;99947.09;2109929;28;20031;-66
2023/10/22 01:50:55;;;;;;;9.55;6.30;;;;;;;22.14;57.22;99951.00;2098340;28;20032;-66
2023/10/22 01:51:57;;;;;;;12.05;5.82;;;;;;;22.14;57.24;99953.75;2090588;28;20100;-66
2023/10/22 01:53:01;;;;;;;8.73;5.38;;;;;;;22.13;57.19;99960.38;2098943;28;20069;-66
2023/10/22 01:54:06;;;;;;;8.88;6.38;;;;;;;22.12;57.27;99958.78;2106336;28;20146;-66
2023/10/22 01:55:11;;;;;;;8.15;5.78;;;;;;;22.11;57.21;99963.50;2099341;28;20025;-66
2023/10/22 01:56:13;;;;;;;9.00;6.20;;;;;;;22.11;57.29;99962.72;2112559;27;20132;-66
2023/10/22 01:57:18;;;;;;;8.98;6.32;;;;;;;22.10;57.17;99961.09;2098364;28;20045;-67
2023/10/22 01:58:21;;;;;;;8.57;5.63;;;;;;;22.08;57.02;99968.91;2082957;28;21230;-66
2023/10/22 01:59:22;;;;;;;8.35;5.70;;;;;;;22.07;57.23;99959.94;2082015;28;20049;-66
2023/10/22 02:00:25;;;;;;;7.95;5.50;;;;;;;22.07;57.21;99962.66;2082435;28;20143;-66
2023/10/22 02:01:26;;;;;;;9.15;6.03;;;;;;;22.07;57.07;99967.31;2107477;28;20033;-66
2023/10/22 02:02:28;;;;;;;9.85;6.35;;;;;;;22.06;57.08;99980.22;2098305;28;20043;-66
2023/10/22 02:03:33;;;;;;;8.52;6.10;;;;;;;22.05;57.09;99973.19;2098955;28;20039;-66
2023/10/22 02:04:35;;;;;;;8.88;5.97;;;;;;;22.05;57.21;99981.41;2098612;28;20159;-66
2023/10/22 02:05:36;;;;;;;8.38;6.32;;;;;;;22.05;57.16;99983.34;2098681;28;20147;-66
2023/10/22 02:06:38;;;;;;;7.70;5.63;;;;;;;22.04;57.10;99984.53;2089720;28;20033;-66
2023/10/22 02:07:42;;;;;;;9.05;6.32;;;;;;;22.03;57.07;99980.97;2091582;28;20025;-66
2023/10/22 02:08:46;;;;;;;9.57;6.20;;;;;;;22.04;57.13;99984.53;2090203;28;20037;-66
2023/10/22 02:09:49;;;;;;;9.77;5.60;;;;;;;22.03;57.08;99978.22;2091445;28;20022;-66
2023/10/22 02:10:50;;;;;;;8.30;5.60;;;;;;;22.01;57.21;99974.31;2098542;28;20029;-67
2023/10/22 02:11:54;;;;;;;8.68;6.05;;;;;;;22.02;57.00;99978.63;2089078;28;20030;-65
2023/10/22 02:12:55;;;;;;;8.52;6.07;;;;;;;22.01;57.17;99980.56;2107384;27;20039;-66
2023/10/22 02:14:01;;;;;;;8.20;5.90;;;;;;;22.02;57.25;99978.63;2106460;28;20032;-65
2023/10/22 02:15:02;;;;;;;8.43;6.03;;;;;;;22.01;57.06;99985.25;2089725;28;20845;-65
2023/10/22 02:16:05;;;;;;;8.32;5.90;;;;;;;21.99;57.13;99983.66;2100727;27;20052;-66
2023/10/22 02:17:06;;;;;;;8.05;6.05;;;;;;;21.99;57.19;99989.13;2116780;28;20594;-66
2023/10/22 02:18:08;;;;;;;9.50;6.43;;;;;;;22.00;57.01;99989.91;2108431;28;20040;-67
2023/10/22 02:19:09;;;;;;;9.23;6.13;;;;;;;21.99;57.03;99983.66;2099694;28;20074;-67
2023/10/22 02:20:13;;;;;;;7.63;5.65;;;;;;;21.99;57.06;99980.91;2099674;28;20021;-67
2023/10/22 02:21:15;;;;;;;8.05;5.97;;;;;;;21.98;57.08;99987.56;2108388;28;21203;-65
2023/10/22 02:22:17;;;;;;;9.30;5.82;;;;;;;21.98;57.08;99982.09;2116689;28;20097;-66
2023/10/22 02:23:19;;;;;;;8.40;6.03;;;;;;;21.98;57.09;99984.03;2114928;27;20821;-66
2023/10/22 02:24:20;;;;;;;7.90;6.00;;;;;;;21.96;56.89;99987.13;2108331;28;20058;-65
2023/10/22 02:25:22;;;;;;;8.68;6.20;;;;;;;21.96;56.87;99983.59;2116751;27;20134;-66
2023/10/22 02:26:24;;;;;;;8.63;6.15;;;;;;;21.96;56.79;99986.34;2115680;28;20020;-65
2023/10/22 02:27:26;;;;;;;8.88;6.07;;;;;;;21.96;56.84;99978.13;2099861;28;20077;-65
2023/10/22 02:28:27;;;;;;;10.45;6.15;;;;;;;21.95;56.92;99974.63;2099934;28;20029;-65
2023/10/22 02:29:29;;;;;;;8.65;6.43;;;;;;;21.95;56.73;99976.56;2108230;28;20017;-65
2023/10/22 02:30:33;;;;;;;8.20;6.07;;;;;;;21.93;56.90;99973.41;2091792;28;20029;-66
2023/10/22 02:31:34;;;;;;;8.23;5.60;;;;;;;21.94;56.84;99970.31;2083428;28;20140;-65
2023/10/22 02:32:35;;;;;;;9.55;6.40;;;;;;;21.93;56.91;99968.72;2100051;28;20025;-66
2023/10/22 02:33:39;;;;;;;9.30;6.18;;;;;;;21.94;56.95;99964.03;2091237;28;20032;-65
2023/10/22 02:34:40;;;;;;;8.98;6.47;;;;;;;21.93;56.96;99973.41;2083975;28;20877;-66
2023/10/22 02:35:43;;;;;;;8.38;6.30;;;;;;;21.93;56.87;99957.75;2099726;28;20025;-66
2023/10/22 02:36:45;;;;;;;7.85;5.85;;;;;;;21.92;56.94;99960.88;2099881;28;20032;-66
2023/10/22 02:37:49;;;;;;;10.35;6.50;;;;;;;21.92;56.88;99958.16;2099321;28;20037;-67
2023/10/22 02:38:50;;;;;;;9.88;6.38;;;;;;;21.91;57.13;99960.09;2100549;28;20215;-66
2023/10/22 02:39:52;;;;;;;8.70;6.22;;;;;;;21.91;57.10;99960.09;2099479;28;20860;-67
2023/10/22 02:40:53;;;;;;;9.73;6.53;;;;;;;21.91;57.00;99957.38;2099513;28;20064;-66
2023/10/22 02:41:56;;;;;;;8.93;6.40;;;;;;;21.91;57.06;99957.38;2102075;28;20768;-66
2023/10/22 02:42:58;;;;;;;10.05;6.18;;;;;;;21.91;57.14;99964.75;2099678;28;20127;-67
2023/10/22 02:44:00;;;;;;;9.30;5.75;;;;;;;21.90;57.06;99960.44;2091516;28;20038;-66
2023/10/22 02:45:02;;;;;;;9.05;6.40;;;;;;;21.89;57.12;99962.41;2100138;28;20839;-66
2023/10/22 02:46:04;;;;;;;7.50;5.85;;;;;;;21.90;56.81;99963.97;2099398;28;20028;-66
2023/10/22 02:47:05;;;;;;;8.63;6.43;;;;;;;21.89;56.94;99962.41;2100043;28;20025;-66
2023/10/22 02:48:07;;;;;;;9.45;6.43;;;;;;;21.89;56.85;99959.66;2108137;28;20121;-66
2023/10/22 02:49:09;;;;;;;9.32;6.28;;;;;;;21.89;56.85;99953.41;2108124;28;20103;-66
2023/10/22 02:50:11;;;;;;;9.30;6.32;;;;;;;21.88;56.87;99955.38;2107583;28;20822;-66
2023/10/22 02:51:12;;;;;;;8.52;5.70;;;;;;;21.87;57.05;99948.28;2091756;28;20042;-66
2023/10/22 02:52:14;;;;;;;10.00;5.90;;;;;;;21.88;56.99;99949.88;2099399;28;20068;-66
2023/10/22 02:53:16;;;;;;;8.63;6.60;;;;;;;21.87;57.05;99947.50;2097370;28;20045;-66
2023/10/22 02:54:18;;;;;;;9.35;6.13;;;;;;;21.86;56.94;99946.72;2098945;28;20052;-66
2023/10/22 02:55:20;;;;;;;8.68;6.53;;;;;;;21.86;57.06;99946.72;2116409;27;20036;-66
2023/10/22 02:56:21;;;;;;;8.75;6.53;;;;;;;21.85;56.83;99949.84;2124852;27;20066;-67
2023/10/22 02:57:23;;;;;;;8.30;5.85;;;;;;;21.86;56.84;99957.66;2107005;27;20028;-66
2023/10/22 02:58:25;;;;;;;9.60;6.63;;;;;;;21.83;56.81;99952.94;2099530;28;20868;-67
2023/10/22 02:59:27;;;;;;;8.35;6.18;;;;;;;21.85;56.96;99960.78;2091310;28;20038;-67
2023/10/22 03:00:29;;;;;;;10.02;6.32;;;;;;;21.85;56.76;99956.09;2091207;28;20040;-66
2023/10/22 03:01:31;;;;;;;11.82;6.70;;;;;;;21.85;56.76;99955.31;2091406;28;20864;-67
2023/10/22 03:02:32;;;;;;;8.57;6.05;;;;;;;21.85;56.87;99960.78;2082637;28;20189;-67
2023/10/22 03:03:39;;;;;;;8.77;6.45;;;;;;;21.85;56.70;99961.56;2083507;28;20159;-67
2023/10/22 03:04:41;;;;;;;10.00;6.22;;;;;;;21.85;56.81;99971.75;2084007;28;20152;-66
2023/10/22 03:05:45;;;;;;;9.10;6.68;;;;;;;21.85;56.77;99966.25;2099587;28;20037;-66
2023/10/22 03:06:47;;;;;;;8.18;6.00;;;;;;;21.83;56.91;99969.34;2091772;28;20026;-66
2023/10/22 03:07:49;;;;;;;8.80;6.18;;;;;;;21.83;56.67;99969.34;2083156;28;20065;-67
2023/10/22 03:08:51;;;;;;;8.82;6.35;;;;;;;21.82;56.68;99967.00;2091305;28;20188;-67
2023/10/22 03:09:55;;;;;;;8.73;6.00;;;;;;;21.80;56.58;99964.63;2091329;28;20820;-67
2023/10/22 03:10:56;;;;;;;10.00;6.65;;;;;;;21.81;56.63;99963.44;2091760;28;20030;-67
2023/10/22 03:11:58;;;;;;;10.18;6.35;;;;;;;21.81;56.53;99966.19;2098406;28;20052;-67
2023/10/22 03:13:00;;;;;;;9.93;6.80;;;;;;;21.81;56.46;99962.66;2099909;28;20970;-67
2023/10/22 03:14:02;;;;;;;10.55;6.85;;;;;;;21.75;56.59;99957.53;2099722;28;20049;-67
2023/10/22 03:15:07;;;;;;;10.43;6.65;;;;;;;21.79;56.50;99960.31;2091176;28;20032;-66
2023/10/22 03:16:11;;;;;;;10.52;7.05;;;;;;;21.78;56.41;99961.44;2092889;28;20171;-67
2023/10/22 03:17:12;;;;;;;9.68;6.72;;;;;;;21.78;56.58;99966.13;2099629;28;20033;-67
2023/10/22 03:18:16;;;;;;;10.02;6.72;;;;;;;21.78;56.63;99960.66;2091252;28;20068;-66
2023/10/22 03:19:19;;;;;;;9.50;6.72;;;;;;;21.76;56.67;99958.31;2092109;28;20773;-67
2023/10/22 03:20:24;;;;;;;10.05;6.72;;;;;;;21.75;56.55;99960.25;2108734;28;20818;-67
2023/10/22 03:21:30;;;;;;;9.07;6.57;;;;;;;21.77;56.44;99954.41;2099122;28;20025;-67
2023/10/22 03:22:32;;;;;;;9.82;7.00;;;;;;;21.75;56.58;99956.72;2092339;27;20037;-67
2023/10/22 03:23:35;;;;;;;10.77;6.68;;;;;;;21.74;56.61;99955.16;2116159;28;20123;-68
2023/10/22 03:24:38;;;;;;;9.30;6.63;;;;;;;21.73;56.65;99959.03;2116289;28;20028;-68
2023/10/22 03:25:43;;;;;;;10.52;6.78;;;;;;;21.73;56.80;99959.03;2099739;28;20041;-68
2023/10/22 03:26:45;;;;;;;9.48;6.50;;;;;;;21.72;56.70;99962.91;2089929;28;20095;-67
2023/10/22 03:27:48;;;;;;;11.00;7.05;;;;;;;21.71;56.54;99964.09;2099251;28;20067;-67
2023/10/22 03:28:51;;;;;;;12.70;7.10;;;;;;;21.68;56.74;99962.09;2091418;28;21146;-67
2023/10/22 03:29:53;;;;;;;9.55;6.78;;;;;;;21.68;56.68;99957.41;2074963;28;20132;-68
2023/10/22 03:30:55;;;;;;;10.55;6.80;;;;;;;21.69;56.74;99967.22;2075107;28;20845;-67
2023/10/22 03:31:58;;;;;;;10.88;7.05;;;;;;;21.69;56.64;99969.13;2091105;28;20169;-68
2023/10/22 03:33:00;;;;;;;9.90;7.10;;;;;;;21.69;56.77;99969.13;2091258;28;20145;-68
2023/10/22 03:34:02;;;;;;;11.20;6.88;;;;;;;21.67;56.86;99969.50;2082747;28;20038;-67
2023/10/22 03:35:07;;;;;;;10.95;6.88;;;;;;;21.66;56.80;99962.47;2091347;28;20030;-69
2023/10/22 03:36:11;;;;;;;9.43;6.80;;;;;;;21.67;56.84;99968.72;2083276;28;20851;-67
2023/10/22 03:37:17;;;;;;;8.85;6.30;;;;;;;21.67;56.91;99966.00;2085269;28;20077;-67
2023/10/22 03:38:24;;;;;;;10.20;6.15;;;;;;;21.66;57.04;99965.19;2099448;28;20025;-67
2023/10/22 03:39:27;;;;;;;10.35;6.78;;;;;;;21.67;57.00;99968.72;2100294;28;20875;-67
2023/10/22 03:40:29;;;;;;;8.85;6.25;;;;;;;21.67;57.06;99974.19;2091038;28;20037;-68
2023/10/22 03:41:30;;;;;;;9.23;6.22;;;;;;;21.67;57.01;99966.78;2099598;28;20025;-67
2023/10/22 03:42:40;;;;;;;10.65;7.00;;;;;;;21.67;57.01;99969.50;2091655;28;20959;-68
2023/10/22 03:43:42;;;;;;;11.00;6.88;;;;;;;21.68;57.01;99964.81;2109249;28;20109;-68
2023/10/22 03:44:44;;;;;;;9.15;6.10;;;;;;;21.67;57.03;99964.03;2116213;28;20036;-68
2023/10/22 03:45:46;;;;;;;10.98;6.45;;;;;;;21.67;57.23;99972.25;2107871;28;20075;-68
2023/10/22 03:46:48;;;;;;;10.43;7.18;;;;;;;21.68;57.02;99962.09;2090895;28;20808;-68
2023/10/22 03:47:49;;;;;;;11.20;7.32;;;;;;;21.68;57.03;99964.81;2090928;28;20129;-67
2023/10/22 03:48:51;;;;;;;9.73;6.60;;;;;;;21.70;57.06;99973.47;2098912;28;20029;-68
2023/10/22 03:49:53;;;;;;;9.15;6.40;;;;;;;21.69;56.93;99963.66;2099412;28;20033;-68
2023/10/22 03:50:55;;;;;;;11.63;6.65;;;;;;;21.69;57.05;99963.66;2098975;28;20033;-67
2023/10/22 03:51:56;;;;;;;10.40;6.78;;;;;;;21.70;57.06;99973.47;2082610;28;21371;-68
2023/10/22 03:52:58;;;;;;;9.35;6.63;;;;;;;21.70;57.04;99962.53;2090801;28;20851;-67
2023/10/22 03:54:00;;;;;;;10.52;6.80;;;;;;;21.69;56.99;99964.47;2083233;28;20185;-68
2023/10/22 03:55:06;;;;;;;9.68;6.95;;;;;;;21.71;56.89;99972.28;2098039;28;20037;-68
2023/10/22 03:56:10;;;;;;;9.85;6.55;;;;;;;21.69;57.32;99963.66;2108615;28;20110;-69
2023/10/22 03:57:12;;;;;;;10.18;6.90;;;;;;;21.71;56.98;99961.34;2112554;28;20170;-69
2023/10/22 03:58:13;;;;;;;11.38;7.00;;;;;;;21.70;56.95;99965.25;2091132;28;20030;-69
2023/10/22 03:59:15;;;;;;;10.13;7.07;;;;;;;21.70;57.01;99959.78;2090579;28;20077;-69
2023/10/22 04:00:20;;;;;;;8.63;6.45;;;;;;;21.70;56.98;99957.03;2082860;28;20072;-69
2023/10/22 04:01:23;;;;;;;9.25;6.68;;;;;;;21.71;57.04;99972.28;2092058;28;20025;-68
2023/10/22 04:02:26;;;;;;;11.50;7.32;;;;;;;21.71;56.95;99966.81;2099549;28;20036;-69
2023/10/22 04:03:28;;;;;;;9.57;6.55;;;;;;;21.71;57.06;99966.81;2099281;28;20025;-69
2023/10/22 04:04:30;;;;;;;10.27;6.70;;;;;;;21.72;57.04;99968.38;2090744;28;20131;-69
2023/10/22 04:05:32;;;;;;;9.63;6.75;;;;;;;21.71;56.81;99969.56;2083160;28;20136;-69
2023/10/22 04:06:34;;;;;;;8.85;6.38;;;;;;;21.72;56.97;99973.88;2099118;28;20037;-69
2023/10/22 04:07:36;;;;;;;9.30;6.68;;;;;;;21.70;57.07;99971.50;2098966;28;20799;-69
2023/10/22 04:08:41;;;;;;;9.23;6.20;;;;;;;21.72;57.00;99976.59;2091838;28;20034;-69
2023/10/22 04:09:42;;;;;;;10.07;6.50;;;;;;;21.71;56.90;99969.56;2108011;28;20949;-67
2023/10/22 04:10:45;;;;;;;8.85;6.28;;;;;;;21.72;56.88;99974.69;2107129;28;20863;-68
2023/10/22 04:11:47;;;;;;;9.60;6.85;;;;;;;21.72;56.81;99968.38;2099161;28;20747;-68
2023/10/22 04:12:49;;;;;;;9.30;6.82;;;;;;;21.72;56.69;99962.91;2106462;28;20187;-67
2023/10/22 04:13:51;;;;;;;9.35;6.53;;;;;;;21.72;56.80;99960.19;2107085;28;20025;-68
2023/10/22 04:14:53;;;;;;;10.13;6.70;;;;;;;21.71;56.78;99967.59;2107306;28;20032;-68
2023/10/22 04:15:54;;;;;;;9.20;6.50;;;;;;;21.72;56.74;99962.91;2098551;28;20025;-68
2023/10/22 04:16:56;;;;;;;9.63;6.43;;;;;;;21.72;56.56;99968.38;2099065;28;20052;-67
2023/10/22 04:17:58;;;;;;;9.63;6.72;;;;;;;21.73;56.69;99964.53;2098570;28;20032;-67
2023/10/22 04:18:59;;;;;;;9.57;6.57;;;;;;;21.72;56.62;99962.91;2090852;28;20038;-67
2023/10/22 04:20:05;;;;;;;10.30;6.82;;;;;;;21.73;56.75;99961.78;2099468;28;20211;-67
2023/10/22 04:21:33;;;;;;;8.55;6.10;;;;;;;21.73;56.62;99956.31;2099340;28;20106;-67
2023/10/22 04:22:35;;;;;;;8.07;5.93;;;;;;;21.72;56.56;99958.25;2097802;28;20155;-67
2023/10/22 04:23:36;;;;;;;8.93;6.28;;;;;;;21.74;56.64;99961.41;2115447;28;20012;-67
2023/10/22 04:24:38;;;;;;;9.07;6.05;;;;;;;21.73;56.64;99959.03;2106842;28;20078;-67
2023/10/22 04:25:44;;;;;;;10.35;6.68;;;;;;;21.73;56.54;99964.53;2099341;28;20021;-68
2023/10/22 04:26:45;;;;;;;10.35;6.45;;;;;;;21.74;56.45;99971.56;2091415;28;20032;-67
2023/10/22 04:27:48;;;;;;;8.98;6.40;;;;;;;21.74;56.51;99966.09;2103034;28;20098;-67
2023/10/22 04:28:49;;;;;;;8.63;6.75;;;;;;;21.75;56.46;99971.22;2098820;28;20029;-67
2023/10/22 04:29:50;;;;;;;8.10;6.10;;;;;;;21.75;56.35;99962.19;2107415;28;20021;-67
2023/10/22 04:30:55;;;;;;;10.70;6.72;;;;;;;21.77;56.58;99968.09;2107080;28;20040;-67
2023/10/22 04:31:56;;;;;;;8.68;6.35;;;;;;;21.77;56.56;99970.81;2091634;28;20041;-67
2023/10/22 04:32:57;;;;;;;9.32;6.20;;;;;;;21.77;56.40;99970.81;2090656;28;20045;-67
2023/10/22 04:33:59;;;;;;;11.02;6.72;;;;;;;21.76;56.52;99974.72;2090447;28;20104;-67
2023/10/22 04:35:06;;;;;;;9.35;6.38;;;;;;;21.76;56.51;99969.25;2108077;27;20033;-67
2023/10/22 04:36:18;;;;;;;9.30;6.40;;;;;;;21.75;56.46;99973.13;2107215;28;20784;-67
2023/10/22 04:37:23;;;;;;;8.35;6.13;;;;;;;21.76;56.45;99974.72;2093782;28;20149;-68
2023/10/22 04:38:24;;;;;;;23.00;7.75;;;;;;;21.76;56.41;99972.00;2098858;28;20872;-68
2023/10/22 04:39:26;;;;;;;8.65;6.25;;;;;;;21.78;56.38;99971.59;2107137;28;20064;-67
2023/10/22 04:40:34;;;;;;;8.43;6.22;;;;;;;21.76;56.49;99974.72;2098949;28;20809;-67
2023/10/22 04:41:36;;;;;;;9.73;6.00;;;;;;;21.76;56.43;99972.00;2092686;28;20067;-67
2023/10/22 04:42:38;;;;;;;8.93;6.03;;;;;;;21.76;56.53;99977.47;2106427;28;22142;-67
2023/10/22 04:43:41;;;;;;;10.23;6.70;;;;;;;21.76;56.41;99980.19;2124375;27;21126;-67
2023/10/22 04:44:45;;;;;;;10.95;5.97;;;;;;;21.77;56.46;99978.25;2107065;28;20028;-67
2023/10/22 04:45:51;;;;;;;8.85;6.30;;;;;;;21.78;56.38;99977.88;2099500;28;21112;-66
2023/10/22 04:46:54;;;;;;;9.82;6.63;;;;;;;21.77;56.42;99981.78;2099277;28;20878;-67
2023/10/22 04:47:58;;;;;;;12.10;6.90;;;;;;;21.73;56.31;99975.47;2082688;28;20046;-66
2023/10/22 04:48:59;;;;;;;8.88;6.43;;;;;;;21.76;56.12;99977.47;2091457;28;20036;-68
2023/10/22 04:50:01;;;;;;;9.40;6.40;;;;;;;21.76;56.26;99982.94;2107304;28;20064;-66
2023/10/22 04:51:07;;;;;;;11.80;7.10;;;;;;;21.76;56.29;99980.19;2106994;28;20032;-66
2023/10/22 04:52:10;;;;;;;10.98;7.13;;;;;;;21.76;55.99;99985.69;2091599;28;20033;-66
2023/10/22 04:53:12;;;;;;;9.52;6.78;;;;;;;21.75;56.01;99989.53;2090689;28;20068;-67
2023/10/22 04:54:13;;;;;;;12.43;7.40;;;;;;;21.75;56.08;99984.06;2099299;27;20047;-67
2023/10/22 04:55:16;;;;;;;12.82;7.60;;;;;;;21.74;55.79;99979.78;2115293;28;20113;-68